sensor_id;sensor_type;location;lat;lon;timestamp;pressure;altitude;pressure_sealevel;temperature
37536;BMP180;23379;51.554;6.736;2023-09-30T00:01:54;101966.00;;;13.10
37536;BMP180;23379;51.554;6.736;2023-09-30T00:04:20;101979.00;;;13.10
37536;BMP180;23379;51.554;6.736;2023-09-30T00:06:45;101961.00;;;13.20
37536;BMP180;23379;51.554;6.736;2023-09-30T00:09:11;101969.00;;;13.00
37536;BMP180;23379;51.554;6.736;2023-09-30T00:11:37;101975.00;;;13.00
37536;BMP180;23379;51.554;6.736;2023-09-30T00:14:02;101978.00;;;13.00
37536;BMP180;23379;51.554;6.736;2023-09-30T00:16:27;101962.00;;;13.10
37536;BMP180;23379;51.554;6.736;2023-09-30T00:18:53;101915.00;;;13.00
37536;BMP180;23379;51.554;6.736;2023-09-30T00:21:19;101960.00;;;12.80
37536;BMP180;23379;51.554;6.736;2023-09-30T00:23:45;101958.00;;;13.00
37536;BMP180;23379;51.554;6.736;2023-09-30T00:26:10;101935.00;;;13.10
37536;BMP180;23379;51.554;6.736;2023-09-30T00:28:35;101958.00;;;13.20
37536;BMP180;23379;51.554;6.736;2023-09-30T00:31:01;101958.00;;;13.10
37536;BMP180;23379;51.554;6.736;2023-09-30T00:33:26;101977.00;;;13.20
37536;BMP180;23379;51.554;6.736;2023-09-30T00:35:51;101968.00;;;13.20
37536;BMP180;23379;51.554;6.736;2023-09-30T00:38:16;101981.00;;;13.20
37536;BMP180;23379;51.554;6.736;2023-09-30T00:40:49;101977.00;;;13.00
37536;BMP180;23379;51.554;6.736;2023-09-30T00:43:20;101979.00;;;13.00
37536;BMP180;23379;51.554;6.736;2023-09-30T00:45:48;101979.00;;;13.00
37536;BMP180;23379;51.554;6.736;2023-09-30T00:48:14;101966.00;;;13.10
37536;BMP180;23379;51.554;6.736;2023-09-30T00:50:39;101972.00;;;13.10
37536;BMP180;23379;51.554;6.736;2023-09-30T00:53:06;101999.00;;;13.00
37536;BMP180;23379;51.554;6.736;2023-09-30T00:55:33;102017.00;;;13.00
37536;BMP180;23379;51.554;6.736;2023-09-30T00:57:58;101992.00;;;13.00
37536;BMP180;23379;51.554;6.736;2023-09-30T01:00:24;101978.00;;;13.20
37536;BMP180;23379;51.554;6.736;2023-09-30T01:02:50;101976.00;;;13.10
37536;BMP180;23379;51.554;6.736;2023-09-30T01:05:18;101960.00;;;12.90
37536;BMP180;23379;51.554;6.736;2023-09-30T01:07:43;101987.00;;;12.80
37536;BMP180;23379;51.554;6.736;2023-09-30T01:10:09;101978.00;;;12.90
37536;BMP180;23379;51.554;6.736;2023-09-30T01:12:34;101974.00;;;12.70
37536;BMP180;23379;51.554;6.736;2023-09-30T01:15:00;101958.00;;;12.80
37536;BMP180;23379;51.554;6.736;2023-09-30T01:17:25;101967.00;;;13.00
37536;BMP180;23379;51.554;6.736;2023-09-30T01:19:51;101984.00;;;13.00
37536;BMP180;23379;51.554;6.736;2023-09-30T01:22:17;102006.00;;;13.00
37536;BMP180;23379;51.554;6.736;2023-09-30T01:24:43;102003.00;;;13.00
37536;BMP180;23379;51.554;6.736;2023-09-30T01:27:12;101994.00;;;13.10
37536;BMP180;23379;51.554;6.736;2023-09-30T01:29:38;102011.00;;;12.90
37536;BMP180;23379;51.554;6.736;2023-09-30T01:32:04;102008.00;;;12.80
37536;BMP180;23379;51.554;6.736;2023-09-30T01:34:34;101956.00;;;12.70
37536;BMP180;23379;51.554;6.736;2023-09-30T01:36:59;102010.00;;;12.60
37536;BMP180;23379;51.554;6.736;2023-09-30T01:39:25;101997.00;;;12.80
37536;BMP180;23379;51.554;6.736;2023-09-30T01:41:50;102018.00;;;12.90
37536;BMP180;23379;51.554;6.736;2023-09-30T01:44:16;101996.00;;;12.70
37536;BMP180;23379;51.554;6.736;2023-09-30T01:46:41;101973.00;;;12.60
37536;BMP180;23379;51.554;6.736;2023-09-30T01:49:06;102020.00;;;12.80
37536;BMP180;23379;51.554;6.736;2023-09-30T01:51:32;102002.00;;;12.80
37536;BMP180;23379;51.554;6.736;2023-09-30T01:53:58;102008.00;;;12.60
37536;BMP180;23379;51.554;6.736;2023-09-30T01:56:23;101997.00;;;12.60
37536;BMP180;23379;51.554;6.736;2023-09-30T01:58:48;102017.00;;;12.70
37536;BMP180;23379;51.554;6.736;2023-09-30T02:01:14;102029.00;;;12.40
37536;BMP180;23379;51.554;6.736;2023-09-30T02:03:40;102033.00;;;12.50
37536;BMP180;23379;51.554;6.736;2023-09-30T02:06:07;102024.00;;;12.40
37536;BMP180;23379;51.554;6.736;2023-09-30T02:08:33;102019.00;;;12.30
37536;BMP180;23379;51.554;6.736;2023-09-30T02:11:00;102032.00;;;12.40
37536;BMP180;23379;51.554;6.736;2023-09-30T02:13:25;102005.00;;;12.00
37536;BMP180;23379;51.554;6.736;2023-09-30T02:15:52;102012.00;;;12.10
37536;BMP180;23379;51.554;6.736;2023-09-30T02:18:20;101996.00;;;12.10
37536;BMP180;23379;51.554;6.736;2023-09-30T02:20:46;102030.00;;;12.20
37536;BMP180;23379;51.554;6.736;2023-09-30T02:23:12;102014.00;;;12.30
37536;BMP180;23379;51.554;6.736;2023-09-30T02:25:38;102019.00;;;12.10
37536;BMP180;23379;51.554;6.736;2023-09-30T02:28:05;102006.00;;;12.00
37536;BMP180;23379;51.554;6.736;2023-09-30T02:30:31;101983.00;;;12.10
37536;BMP180;23379;51.554;6.736;2023-09-30T02:32:56;101990.00;;;12.10
37536;BMP180;23379;51.554;6.736;2023-09-30T02:35:22;102002.00;;;11.90
37536;BMP180;23379;51.554;6.736;2023-09-30T02:37:47;101991.00;;;12.00
37536;BMP180;23379;51.554;6.736;2023-09-30T02:40:14;101996.00;;;12.10
37536;BMP180;23379;51.554;6.736;2023-09-30T02:42:41;102005.00;;;12.10
37536;BMP180;23379;51.554;6.736;2023-09-30T02:45:07;102013.00;;;12.10
37536;BMP180;23379;51.554;6.736;2023-09-30T02:47:34;102031.00;;;12.10
37536;BMP180;23379;51.554;6.736;2023-09-30T02:49:59;102024.00;;;12.00
37536;BMP180;23379;51.554;6.736;2023-09-30T02:52:25;102008.00;;;11.90
37536;BMP180;23379;51.554;6.736;2023-09-30T02:54:50;101997.00;;;11.90
37536;BMP180;23379;51.554;6.736;2023-09-30T02:57:17;102004.00;;;11.90
37536;BMP180;23379;51.554;6.736;2023-09-30T02:59:43;102008.00;;;11.90
37536;BMP180;23379;51.554;6.736;2023-09-30T03:02:09;102033.00;;;12.00
37536;BMP180;23379;51.554;6.736;2023-09-30T03:04:35;102027.00;;;12.00
37536;BMP180;23379;51.554;6.736;2023-09-30T03:07:01;102010.00;;;12.00
37536;BMP180;23379;51.554;6.736;2023-09-30T03:09:27;102012.00;;;11.90
37536;BMP180;23379;51.554;6.736;2023-09-30T03:11:52;102011.00;;;11.90
37536;BMP180;23379;51.554;6.736;2023-09-30T03:14:19;102014.00;;;12.00
37536;BMP180;23379;51.554;6.736;2023-09-30T03:16:45;101995.00;;;11.90
37536;BMP180;23379;51.554;6.736;2023-09-30T03:19:11;102011.00;;;11.90
37536;BMP180;23379;51.554;6.736;2023-09-30T03:21:37;102019.00;;;12.00
37536;BMP180;23379;51.554;6.736;2023-09-30T03:24:05;102016.00;;;12.10
37536;BMP180;23379;51.554;6.736;2023-09-30T03:26:33;102027.00;;;11.90
37536;BMP180;23379;51.554;6.736;2023-09-30T03:28:59;101998.00;;;11.90
37536;BMP180;23379;51.554;6.736;2023-09-30T03:31:24;102007.00;;;11.80
37536;BMP180;23379;51.554;6.736;2023-09-30T03:33:50;101984.00;;;11.90
37536;BMP180;23379;51.554;6.736;2023-09-30T03:36:20;101984.00;;;11.80
37536;BMP180;23379;51.554;6.736;2023-09-30T03:38:45;101989.00;;;11.90
37536;BMP180;23379;51.554;6.736;2023-09-30T03:41:10;101993.00;;;11.90
37536;BMP180;23379;51.554;6.736;2023-09-30T03:43:38;102005.00;;;12.00
37536;BMP180;23379;51.554;6.736;2023-09-30T03:46:06;102004.00;;;11.90
37536;BMP180;23379;51.554;6.736;2023-09-30T03:48:32;101996.00;;;12.00
37536;BMP180;23379;51.554;6.736;2023-09-30T03:50:57;102008.00;;;12.10
37536;BMP180;23379;51.554;6.736;2023-09-30T03:53:25;102002.00;;;12.10
37536;BMP180;23379;51.554;6.736;2023-09-30T03:56:17;101981.00;;;12.10
37536;BMP180;23379;51.554;6.736;2023-09-30T03:58:44;101999.00;;;11.90
37536;BMP180;23379;51.554;6.736;2023-09-30T04:01:10;102014.00;;;12.00
37536;BMP180;23379;51.554;6.736;2023-09-30T04:03:39;102002.00;;;11.90
37536;BMP180;23379;51.554;6.736;2023-09-30T04:06:05;102017.00;;;12.00
37536;BMP180;23379;51.554;6.736;2023-09-30T04:08:32;102000.00;;;11.90
37536;BMP180;23379;51.554;6.736;2023-09-30T04:11:07;101971.00;;;11.90
37536;BMP180;23379;51.554;6.736;2023-09-30T04:13:33;101982.00;;;11.80
37536;BMP180;23379;51.554;6.736;2023-09-30T04:16:04;101972.00;;;11.80
37536;BMP180;23379;51.554;6.736;2023-09-30T04:18:38;102011.00;;;11.70
37536;BMP180;23379;51.554;6.736;2023-09-30T04:21:05;101921.00;;;11.80
37536;BMP180;23379;51.554;6.736;2023-09-30T04:23:33;101945.00;;;11.80
37536;BMP180;23379;51.554;6.736;2023-09-30T04:26:04;101942.00;;;11.70
37536;BMP180;23379;51.554;6.736;2023-09-30T04:28:47;101929.00;;;11.70
37536;BMP180;23379;51.554;6.736;2023-09-30T04:31:22;101960.00;;;11.80
37536;BMP180;23379;51.554;6.736;2023-09-30T04:33:49;101942.00;;;11.30
37536;BMP180;23379;51.554;6.736;2023-09-30T04:36:19;101923.00;;;11.20
37536;BMP180;23379;51.554;6.736;2023-09-30T04:38:53;101950.00;;;11.50
37536;BMP180;23379;51.554;6.736;2023-09-30T04:41:21;101944.00;;;11.40
37536;BMP180;23379;51.554;6.736;2023-09-30T04:43:55;102029.00;;;11.60
37536;BMP180;23379;51.554;6.736;2023-09-30T04:46:22;102026.00;;;11.60
37536;BMP180;23379;51.554;6.736;2023-09-30T04:48:49;101959.00;;;11.50
37536;BMP180;23379;51.554;6.736;2023-09-30T04:51:20;101927.00;;;11.60
37536;BMP180;23379;51.554;6.736;2023-09-30T04:53:59;101964.00;;;11.70
37536;BMP180;23379;51.554;6.736;2023-09-30T04:56:44;102001.00;;;11.70
37536;BMP180;23379;51.554;6.736;2023-09-30T04:59:12;102017.00;;;11.30
37536;BMP180;23379;51.554;6.736;2023-09-30T05:01:40;102008.00;;;11.60
37536;BMP180;23379;51.554;6.736;2023-09-30T05:04:08;102033.00;;;11.50
37536;BMP180;23379;51.554;6.736;2023-09-30T05:06:45;101977.00;;;11.30
37536;BMP180;23379;51.554;6.736;2023-09-30T05:09:12;101962.00;;;11.40
37536;BMP180;23379;51.554;6.736;2023-09-30T05:11:38;101987.00;;;11.20
37536;BMP180;23379;51.554;6.736;2023-09-30T05:14:04;102064.00;;;11.40
37536;BMP180;23379;51.554;6.736;2023-09-30T05:16:36;101962.00;;;11.50
37536;BMP180;23379;51.554;6.736;2023-09-30T05:19:08;102038.00;;;11.40
37536;BMP180;23379;51.554;6.736;2023-09-30T05:21:34;101978.00;;;11.40
37536;BMP180;23379;51.554;6.736;2023-09-30T05:24:11;101986.00;;;11.30
37536;BMP180;23379;51.554;6.736;2023-09-30T05:26:52;102050.00;;;11.30
37536;BMP180;23379;51.554;6.736;2023-09-30T05:29:30;101964.00;;;11.40
37536;BMP180;23379;51.554;6.736;2023-09-30T05:31:58;101993.00;;;11.00
37536;BMP180;23379;51.554;6.736;2023-09-30T05:34:34;101996.00;;;11.40
37536;BMP180;23379;51.554;6.736;2023-09-30T05:37:22;101997.00;;;11.40
37536;BMP180;23379;51.554;6.736;2023-09-30T05:39:55;101983.00;;;11.60
37536;BMP180;23379;51.554;6.736;2023-09-30T05:42:32;101973.00;;;11.30
37536;BMP180;23379;51.554;6.736;2023-09-30T05:45:00;102023.00;;;11.40
37536;BMP180;23379;51.554;6.736;2023-09-30T05:47:26;102057.00;;;11.20
37536;BMP180;23379;51.554;6.736;2023-09-30T05:49:54;101955.00;;;11.30
37536;BMP180;23379;51.554;6.736;2023-09-30T05:55:26;101993.00;;;11.50
37536;BMP180;23379;51.554;6.736;2023-09-30T05:57:54;102065.00;;;11.60
37536;BMP180;23379;51.554;6.736;2023-09-30T06:00:29;102002.00;;;11.90
37536;BMP180;23379;51.554;6.736;2023-09-30T06:03:07;101968.00;;;11.90
37536;BMP180;23379;51.554;6.736;2023-09-30T06:05:49;102019.00;;;12.10
37536;BMP180;23379;51.554;6.736;2023-09-30T06:08:20;102075.00;;;12.10
37536;BMP180;23379;51.554;6.736;2023-09-30T06:10:49;101994.00;;;11.90
37536;BMP180;23379;51.554;6.736;2023-09-30T06:13:18;101971.00;;;12.10
37536;BMP180;23379;51.554;6.736;2023-09-30T06:15:44;101979.00;;;12.10
37536;BMP180;23379;51.554;6.736;2023-09-30T06:19:03;102064.00;;;12.30
37536;BMP180;23379;51.554;6.736;2023-09-30T06:21:29;102027.00;;;12.40
37536;BMP180;23379;51.554;6.736;2023-09-30T06:24:05;102017.00;;;12.50
37536;BMP180;23379;51.554;6.736;2023-09-30T06:26:44;101958.00;;;12.70
37536;BMP180;23379;51.554;6.736;2023-09-30T06:29:16;102024.00;;;12.70
37536;BMP180;23379;51.554;6.736;2023-09-30T06:31:45;101977.00;;;12.70
37536;BMP180;23379;51.554;6.736;2023-09-30T06:34:11;102016.00;;;12.70
37536;BMP180;23379;51.554;6.736;2023-09-30T06:36:46;102020.00;;;12.90
37536;BMP180;23379;51.554;6.736;2023-09-30T06:39:15;101982.00;;;12.90
37536;BMP180;23379;51.554;6.736;2023-09-30T06:41:46;102038.00;;;12.80
37536;BMP180;23379;51.554;6.736;2023-09-30T06:44:34;102062.00;;;13.00
37536;BMP180;23379;51.554;6.736;2023-09-30T06:47:28;102091.00;;;13.00
37536;BMP180;23379;51.554;6.736;2023-09-30T06:49:59;102074.00;;;12.90
37536;BMP180;23379;51.554;6.736;2023-09-30T06:52:25;101998.00;;;13.30
37536;BMP180;23379;51.554;6.736;2023-09-30T06:57:47;102048.00;;;13.40
37536;BMP180;23379;51.554;6.736;2023-09-30T07:00:13;102084.00;;;13.60
37536;BMP180;23379;51.554;6.736;2023-09-30T07:02:40;102085.00;;;13.60
37536;BMP180;23379;51.554;6.736;2023-09-30T07:07:33;102085.00;;;14.10
37536;BMP180;23379;51.554;6.736;2023-09-30T07:09:58;102109.00;;;14.30
37536;BMP180;23379;51.554;6.736;2023-09-30T07:12:23;102107.00;;;14.30
37536;BMP180;23379;51.554;6.736;2023-09-30T07:14:49;102105.00;;;14.50
37536;BMP180;23379;51.554;6.736;2023-09-30T07:17:14;102098.00;;;14.90
37536;BMP180;23379;51.554;6.736;2023-09-30T07:19:39;102105.00;;;15.20
37536;BMP180;23379;51.554;6.736;2023-09-30T07:22:07;102044.00;;;15.00
37536;BMP180;23379;51.554;6.736;2023-09-30T07:24:36;102084.00;;;16.00
37536;BMP180;23379;51.554;6.736;2023-09-30T07:27:02;102172.00;;;16.50
37536;BMP180;23379;51.554;6.736;2023-09-30T07:29:30;102108.00;;;16.70
37536;BMP180;23379;51.554;6.736;2023-09-30T07:31:58;102079.00;;;17.10
37536;BMP180;23379;51.554;6.736;2023-09-30T07:34:27;102118.00;;;17.40
37536;BMP180;23379;51.554;6.736;2023-09-30T07:36:58;102108.00;;;17.90
37536;BMP180;23379;51.554;6.736;2023-09-30T07:39:23;102155.00;;;17.50
37536;BMP180;23379;51.554;6.736;2023-09-30T07:41:55;102153.00;;;17.60
37536;BMP180;23379;51.554;6.736;2023-09-30T07:44:26;102100.00;;;17.60
37536;BMP180;23379;51.554;6.736;2023-09-30T07:46:54;102095.00;;;18.00
37536;BMP180;23379;51.554;6.736;2023-09-30T07:49:29;102182.00;;;17.80
37536;BMP180;23379;51.554;6.736;2023-09-30T07:52:04;102145.00;;;18.20
37536;BMP180;23379;51.554;6.736;2023-09-30T07:54:29;102094.00;;;18.80
37536;BMP180;23379;51.554;6.736;2023-09-30T07:57:00;102156.00;;;19.30
37536;BMP180;23379;51.554;6.736;2023-09-30T07:59:26;102179.00;;;19.90
37536;BMP180;23379;51.554;6.736;2023-09-30T08:01:58;102150.00;;;20.70
37536;BMP180;23379;51.554;6.736;2023-09-30T08:04:32;102110.00;;;21.30
37536;BMP180;23379;51.554;6.736;2023-09-30T08:06:58;102156.00;;;21.60
37536;BMP180;23379;51.554;6.736;2023-09-30T08:09:31;102153.00;;;21.50
37536;BMP180;23379;51.554;6.736;2023-09-30T08:11:56;102166.00;;;21.20
37536;BMP180;23379;51.554;6.736;2023-09-30T08:14:22;102139.00;;;21.40
37536;BMP180;23379;51.554;6.736;2023-09-30T08:16:56;102159.00;;;22.30
37536;BMP180;23379;51.554;6.736;2023-09-30T08:19:33;102153.00;;;22.60
37536;BMP180;23379;51.554;6.736;2023-09-30T08:21:59;102182.00;;;22.10
37536;BMP180;23379;51.554;6.736;2023-09-30T08:24:24;102192.00;;;22.80
37536;BMP180;23379;51.554;6.736;2023-09-30T08:26:49;102199.00;;;24.10
37536;BMP180;23379;51.554;6.736;2023-09-30T08:29:16;102212.00;;;24.00
37536;BMP180;23379;51.554;6.736;2023-09-30T08:31:42;102203.00;;;23.60
37536;BMP180;23379;51.554;6.736;2023-09-30T08:34:07;102204.00;;;23.10
37536;BMP180;23379;51.554;6.736;2023-09-30T08:36:33;102204.00;;;23.80
37536;BMP180;23379;51.554;6.736;2023-09-30T08:38:58;102176.00;;;23.20
37536;BMP180;23379;51.554;6.736;2023-09-30T08:41:32;102193.00;;;23.40
37536;BMP180;23379;51.554;6.736;2023-09-30T08:44:02;102197.00;;;23.40
37536;BMP180;23379;51.554;6.736;2023-09-30T08:46:32;102194.00;;;24.70
37536;BMP180;23379;51.554;6.736;2023-09-30T08:48:58;102182.00;;;25.00
37536;BMP180;23379;51.554;6.736;2023-09-30T08:51:26;102198.00;;;24.80
37536;BMP180;23379;51.554;6.736;2023-09-30T08:53:52;102214.00;;;25.60
37536;BMP180;23379;51.554;6.736;2023-09-30T08:56:20;102190.00;;;25.20
37536;BMP180;23379;51.554;6.736;2023-09-30T08:58:48;102186.00;;;24.60
37536;BMP180;23379;51.554;6.736;2023-09-30T09:01:14;102177.00;;;24.00
37536;BMP180;23379;51.554;6.736;2023-09-30T09:03:40;102177.00;;;24.50
37536;BMP180;23379;51.554;6.736;2023-09-30T09:06:05;102178.00;;;25.30
37536;BMP180;23379;51.554;6.736;2023-09-30T09:08:31;102189.00;;;25.70
37536;BMP180;23379;51.554;6.736;2023-09-30T09:10:59;102181.00;;;26.50
37536;BMP180;23379;51.554;6.736;2023-09-30T09:13:26;102179.00;;;26.70
37536;BMP180;23379;51.554;6.736;2023-09-30T09:16:10;102176.00;;;27.10
37536;BMP180;23379;51.554;6.736;2023-09-30T09:18:36;102183.00;;;27.10
37536;BMP180;23379;51.554;6.736;2023-09-30T09:21:22;102193.00;;;27.00
37536;BMP180;23379;51.554;6.736;2023-09-30T09:23:50;102205.00;;;26.60
37536;BMP180;23379;51.554;6.736;2023-09-30T09:28:48;102199.00;;;27.70
37536;BMP180;23379;51.554;6.736;2023-09-30T09:31:24;102200.00;;;25.90
37536;BMP180;23379;51.554;6.736;2023-09-30T09:33:51;102198.00;;;26.80
37536;BMP180;23379;51.554;6.736;2023-09-30T09:36:17;102198.00;;;27.30
37536;BMP180;23379;51.554;6.736;2023-09-30T09:38:50;102212.00;;;28.00
37536;BMP180;23379;51.554;6.736;2023-09-30T09:41:19;102200.00;;;28.60
37536;BMP180;23379;51.554;6.736;2023-09-30T09:43:48;102186.00;;;28.40
37536;BMP180;23379;51.554;6.736;2023-09-30T09:46:14;102189.00;;;28.80
37536;BMP180;23379;51.554;6.736;2023-09-30T09:48:40;102190.00;;;28.60
37536;BMP180;23379;51.554;6.736;2023-09-30T09:51:05;102188.00;;;28.40
37536;BMP180;23379;51.554;6.736;2023-09-30T09:53:35;102212.00;;;28.90
37536;BMP180;23379;51.554;6.736;2023-09-30T09:56:46;102162.00;;;28.80
37536;BMP180;23379;51.554;6.736;2023-09-30T10:02:01;102216.00;;;28.80
37536;BMP180;23379;51.554;6.736;2023-09-30T10:04:28;102202.00;;;28.20
37536;BMP180;23379;51.554;6.736;2023-09-30T10:07:11;102188.00;;;27.80
37536;BMP180;23379;51.554;6.736;2023-09-30T10:09:41;102219.00;;;28.00
37536;BMP180;23379;51.554;6.736;2023-09-30T10:12:16;102202.00;;;27.10
37536;BMP180;23379;51.554;6.736;2023-09-30T10:14:41;102191.00;;;28.30
37536;BMP180;23379;51.554;6.736;2023-09-30T10:17:07;102255.00;;;27.70
37536;BMP180;23379;51.554;6.736;2023-09-30T10:19:35;102258.00;;;26.50
37536;BMP180;23379;51.554;6.736;2023-09-30T10:24:41;102239.00;;;28.20
37536;BMP180;23379;51.554;6.736;2023-09-30T10:27:33;102245.00;;;28.30
37536;BMP180;23379;51.554;6.736;2023-09-30T10:40:50;102237.00;;;30.30
37536;BMP180;23379;51.554;6.736;2023-09-30T10:43:35;102257.00;;;30.30
37536;BMP180;23379;51.554;6.736;2023-09-30T10:46:01;102248.00;;;29.90
37536;BMP180;23379;51.554;6.736;2023-09-30T10:51:09;102247.00;;;29.50
37536;BMP180;23379;51.554;6.736;2023-09-30T10:53:41;102252.00;;;29.70
37536;BMP180;23379;51.554;6.736;2023-09-30T10:56:07;102227.00;;;29.60
37536;BMP180;23379;51.554;6.736;2023-09-30T10:58:39;102229.00;;;30.10
37536;BMP180;23379;51.554;6.736;2023-09-30T11:01:04;102231.00;;;29.80
37536;BMP180;23379;51.554;6.736;2023-09-30T11:03:30;102232.00;;;28.30
37536;BMP180;23379;51.554;6.736;2023-09-30T11:05:55;102222.00;;;26.40
37536;BMP180;23379;51.554;6.736;2023-09-30T11:08:21;102214.00;;;23.80
37536;BMP180;23379;51.554;6.736;2023-09-30T11:10:50;102207.00;;;24.80
37536;BMP180;23379;51.554;6.736;2023-09-30T11:13:17;102197.00;;;24.90
37536;BMP180;23379;51.554;6.736;2023-09-30T11:16:06;102164.00;;;25.20
37536;BMP180;23379;51.554;6.736;2023-09-30T11:18:32;102201.00;;;27.90
37536;BMP180;23379;51.554;6.736;2023-09-30T11:21:11;102193.00;;;28.70
37536;BMP180;23379;51.554;6.736;2023-09-30T11:24:00;102177.00;;;27.90
37536;BMP180;23379;51.554;6.736;2023-09-30T11:26:47;102157.00;;;27.30
37536;BMP180;23379;51.554;6.736;2023-09-30T11:29:32;102206.00;;;26.10
37536;BMP180;23379;51.554;6.736;2023-09-30T11:32:00;102147.00;;;25.10
37536;BMP180;23379;51.554;6.736;2023-09-30T11:34:56;102203.00;;;24.10
37536;BMP180;23379;51.554;6.736;2023-09-30T11:37:42;102203.00;;;23.00
37536;BMP180;23379;51.554;6.736;2023-09-30T11:40:30;102231.00;;;23.10
37536;BMP180;23379;51.554;6.736;2023-09-30T11:43:10;102177.00;;;25.40
37536;BMP180;23379;51.554;6.736;2023-09-30T11:45:37;102183.00;;;25.10
37536;BMP180;23379;51.554;6.736;2023-09-30T11:48:02;102189.00;;;25.10
37536;BMP180;23379;51.554;6.736;2023-09-30T11:50:49;102198.00;;;24.10
37536;BMP180;23379;51.554;6.736;2023-09-30T11:53:19;102201.00;;;22.90
37536;BMP180;23379;51.554;6.736;2023-09-30T11:55:45;102206.00;;;22.50
37536;BMP180;23379;51.554;6.736;2023-09-30T11:58:11;102142.00;;;23.40
37536;BMP180;23379;51.554;6.736;2023-09-30T12:00:41;102172.00;;;25.90
37536;BMP180;23379;51.554;6.736;2023-09-30T12:03:09;102157.00;;;27.30
37536;BMP180;23379;51.554;6.736;2023-09-30T12:05:53;102120.00;;;27.60
37536;BMP180;23379;51.554;6.736;2023-09-30T12:08:23;102109.00;;;29.00
37536;BMP180;23379;51.554;6.736;2023-09-30T12:13:16;102150.00;;;30.00
37536;BMP180;23379;51.554;6.736;2023-09-30T12:15:42;102162.00;;;30.70
37536;BMP180;23379;51.554;6.736;2023-09-30T12:18:09;102143.00;;;30.00
37536;BMP180;23379;51.554;6.736;2023-09-30T12:20:35;102142.00;;;30.00
37536;BMP180;23379;51.554;6.736;2023-09-30T12:23:00;102135.00;;;29.80
37536;BMP180;23379;51.554;6.736;2023-09-30T12:25:26;102128.00;;;29.30
37536;BMP180;23379;51.554;6.736;2023-09-30T12:27:51;102138.00;;;28.30
37536;BMP180;23379;51.554;6.736;2023-09-30T12:30:20;102138.00;;;28.70
37536;BMP180;23379;51.554;6.736;2023-09-30T12:32:45;102163.00;;;28.60
37536;BMP180;23379;51.554;6.736;2023-09-30T12:35:11;102165.00;;;28.70
37536;BMP180;23379;51.554;6.736;2023-09-30T12:37:37;102155.00;;;28.90
37536;BMP180;23379;51.554;6.736;2023-09-30T12:40:05;102170.00;;;30.00
37536;BMP180;23379;51.554;6.736;2023-09-30T12:42:32;102158.00;;;29.40
37536;BMP180;23379;51.554;6.736;2023-09-30T12:45:00;102161.00;;;29.60
37536;BMP180;23379;51.554;6.736;2023-09-30T12:47:25;102157.00;;;30.40
37536;BMP180;23379;51.554;6.736;2023-09-30T12:49:52;102163.00;;;30.00
37536;BMP180;23379;51.554;6.736;2023-09-30T12:52:17;102152.00;;;28.40
37536;BMP180;23379;51.554;6.736;2023-09-30T12:54:42;102148.00;;;28.80
37536;BMP180;23379;51.554;6.736;2023-09-30T12:57:08;102151.00;;;27.90
37536;BMP180;23379;51.554;6.736;2023-09-30T12:59:33;102150.00;;;27.90
37536;BMP180;23379;51.554;6.736;2023-09-30T13:01:59;102159.00;;;28.20
37536;BMP180;23379;51.554;6.736;2023-09-30T13:04:24;102143.00;;;29.00
37536;BMP180;23379;51.554;6.736;2023-09-30T13:06:51;102145.00;;;28.10
37536;BMP180;23379;51.554;6.736;2023-09-30T13:09:17;102141.00;;;26.00
37536;BMP180;23379;51.554;6.736;2023-09-30T13:11:45;102121.00;;;26.10
37536;BMP180;23379;51.554;6.736;2023-09-30T13:14:10;102116.00;;;26.10
37536;BMP180;23379;51.554;6.736;2023-09-30T13:16:36;102116.00;;;26.80
37536;BMP180;23379;51.554;6.736;2023-09-30T13:19:02;102113.00;;;27.20
37536;BMP180;23379;51.554;6.736;2023-09-30T13:21:28;102122.00;;;26.20
37536;BMP180;23379;51.554;6.736;2023-09-30T13:23:53;102101.00;;;25.40
37536;BMP180;23379;51.554;6.736;2023-09-30T13:26:19;102102.00;;;25.40
37536;BMP180;23379;51.554;6.736;2023-09-30T13:28:44;102105.00;;;24.60
37536;BMP180;23379;51.554;6.736;2023-09-30T13:31:10;102110.00;;;23.70
37536;BMP180;23379;51.554;6.736;2023-09-30T13:33:35;102100.00;;;23.90
37536;BMP180;23379;51.554;6.736;2023-09-30T13:36:00;102089.00;;;24.70
37536;BMP180;23379;51.554;6.736;2023-09-30T13:38:27;102090.00;;;25.70
37536;BMP180;23379;51.554;6.736;2023-09-30T13:40:53;102103.00;;;26.10
37536;BMP180;23379;51.554;6.736;2023-09-30T13:43:19;102113.00;;;26.30
37536;BMP180;23379;51.554;6.736;2023-09-30T13:45:44;102104.00;;;26.30
37536;BMP180;23379;51.554;6.736;2023-09-30T13:48:09;102111.00;;;26.80
37536;BMP180;23379;51.554;6.736;2023-09-30T13:50:36;102097.00;;;27.00
37536;BMP180;23379;51.554;6.736;2023-09-30T13:53:02;102107.00;;;27.20
37536;BMP180;23379;51.554;6.736;2023-09-30T13:55:28;102097.00;;;27.00
37536;BMP180;23379;51.554;6.736;2023-09-30T13:57:53;102101.00;;;26.60
37536;BMP180;23379;51.554;6.736;2023-09-30T14:00:18;102093.00;;;26.40
37536;BMP180;23379;51.554;6.736;2023-09-30T14:02:44;102105.00;;;25.50
37536;BMP180;23379;51.554;6.736;2023-09-30T14:05:10;102104.00;;;25.20
37536;BMP180;23379;51.554;6.736;2023-09-30T14:07:36;102096.00;;;25.10
37536;BMP180;23379;51.554;6.736;2023-09-30T14:10:06;102079.00;;;25.80
37536;BMP180;23379;51.554;6.736;2023-09-30T14:12:32;102069.00;;;25.10
37536;BMP180;23379;51.554;6.736;2023-09-30T14:14:58;102075.00;;;25.30
37536;BMP180;23379;51.554;6.736;2023-09-30T14:17:24;102077.00;;;24.50
37536;BMP180;23379;51.554;6.736;2023-09-30T14:19:50;102084.00;;;24.60
37536;BMP180;23379;51.554;6.736;2023-09-30T14:22:16;102068.00;;;25.00
37536;BMP180;23379;51.554;6.736;2023-09-30T14:24:42;102074.00;;;24.60
37536;BMP180;23379;51.554;6.736;2023-09-30T14:27:07;102066.00;;;24.50
37536;BMP180;23379;51.554;6.736;2023-09-30T14:29:34;102077.00;;;24.90
37536;BMP180;23379;51.554;6.736;2023-09-30T14:31:59;102069.00;;;24.70
37536;BMP180;23379;51.554;6.736;2023-09-30T14:34:25;102072.00;;;24.10
37536;BMP180;23379;51.554;6.736;2023-09-30T14:36:51;102062.00;;;23.50
37536;BMP180;23379;51.554;6.736;2023-09-30T14:39:17;102046.00;;;22.80